createdAt,value
2023-02-12T00:00:57.363Z,65.20
2023-02-12T00:03:17.082Z,60.25
2023-02-12T00:05:38.535Z,63.83
2023-02-12T00:07:58.166Z,65.10
2023-02-12T00:10:17.950Z,62.05
2023-02-12T00:12:37.589Z,66.05
2023-02-12T00:14:57.218Z,70.35
2023-02-12T00:17:16.829Z,63.70
2023-02-12T00:19:37.032Z,66.80
2023-02-12T00:21:57.207Z,56.80
2023-02-12T00:24:17.036Z,53.42
2023-02-12T00:26:37.439Z,51.20
2023-02-12T00:28:57.276Z,51.95
2023-02-12T00:31:23.687Z,62.55
2023-02-12T00:33:44.100Z,60.35
2023-02-12T00:36:05.032Z,63.90
2023-02-12T00:38:25.288Z,63.58
2023-02-12T00:40:45.184Z,63.75
2023-02-12T00:43:05.482Z,73.82
2023-02-12T00:45:25.590Z,80.97
2023-02-12T00:47:45.763Z,72.88
2023-02-12T00:50:06.068Z,63.85
2023-02-12T00:52:26.128Z,58.38
2023-02-12T00:54:46.227Z,61.72
2023-02-12T00:57:06.231Z,67.72
2023-02-12T00:59:26.442Z,62.00
2023-02-12T01:01:46.079Z,65.13
2023-02-12T01:04:06.189Z,65.30
2023-02-12T01:06:25.918Z,66.50
2023-02-12T01:08:45.956Z,61.67
2023-02-12T01:11:06.143Z,62.45
2023-02-12T01:13:27.054Z,64.68
2023-02-12T01:15:47.161Z,61.22
2023-02-12T01:18:07.605Z,63.25
2023-02-12T01:20:27.619Z,60.90
2023-02-12T01:22:47.840Z,62.22
2023-02-12T01:25:08.281Z,69.13
2023-02-12T01:27:28.202Z,61.42
2023-02-12T01:29:48.212Z,64.97
2023-02-12T01:32:08.110Z,63.40
2023-02-12T01:34:28.076Z,65.47
2023-02-12T01:36:47.664Z,70.55
2023-02-12T01:39:07.849Z,67.03
2023-02-12T01:41:36.500Z,93.88
2023-02-12T01:44:08.675Z,76.10
2023-02-12T01:46:28.546Z,71.82
2023-02-12T01:48:48.279Z,79.07
2023-02-12T01:51:14.327Z,84.22
2023-02-12T01:53:42.117Z,75.35
2023-02-12T01:56:02.883Z,74.75
2023-02-12T01:58:25.660Z,75.15
2023-02-12T02:00:45.579Z,68.07
2023-02-12T02:03:05.874Z,68.93
2023-02-12T02:05:41.157Z,67.07
2023-02-12T02:08:00.787Z,63.45
2023-02-12T02:10:20.398Z,64.38
2023-02-12T02:12:58.968Z,62.63
2023-02-12T02:15:19.159Z,56.90
2023-02-12T02:17:59.978Z,52.92
2023-02-12T02:20:39.179Z,55.28
2023-02-12T02:23:27.064Z,56.35
2023-02-12T02:26:21.280Z,52.15
2023-02-12T02:28:53.450Z,56.13
2023-02-12T02:31:31.705Z,56.15
2023-02-12T02:34:09.621Z,60.28
2023-02-12T02:37:01.698Z,55.30
2023-02-12T02:39:33.854Z,58.83
2023-02-12T02:41:58.743Z,56.95
2023-02-12T02:44:34.464Z,57.72
2023-02-12T02:46:57.131Z,62.72
2023-02-12T02:49:23.469Z,68.53
2023-02-12T02:51:47.288Z,71.88
2023-02-12T02:54:25.309Z,72.45
2023-02-12T02:56:48.314Z,71.80
2023-02-12T03:01:37.809Z,62.20
2023-02-12T03:04:12.091Z,61.30
2023-02-12T03:06:56.012Z,62.10
2023-02-12T03:09:25.432Z,60.97
2023-02-12T03:11:45.637Z,63.95
2023-02-12T03:14:18.499Z,66.25
2023-02-12T03:16:45.786Z,55.30
2023-02-12T03:19:10.453Z,57.83
2023-02-12T03:22:08.646Z,55.92
2023-02-12T03:24:42.397Z,61.72
2023-02-12T03:27:22.304Z,58.70
2023-02-12T03:29:42.058Z,62.90
2023-02-12T03:32:11.579Z,63.50
2023-02-12T03:35:15.939Z,68.78
2023-02-12T03:37:48.598Z,72.75
2023-02-12T03:40:21.190Z,66.80
2023-02-12T03:42:50.205Z,68.90
2023-02-12T03:45:26.378Z,68.70
2023-02-12T03:47:52.590Z,62.22
2023-02-12T03:50:15.630Z,62.88
2023-02-12T03:52:35.652Z,64.70
2023-02-12T03:54:55.996Z,68.10
2023-02-12T03:57:29.883Z,64.45
2023-02-12T03:59:50.650Z,61.40
2023-02-12T04:02:10.444Z,66.10
2023-02-12T04:04:31.212Z,61.95
2023-02-12T04:06:52.598Z,60.38
2023-02-12T04:09:13.269Z,56.97
2023-02-12T04:12:10.896Z,63.22
2023-02-12T04:14:49.669Z,56.47
2023-02-12T04:17:26.951Z,55.92
2023-02-12T04:20:02.098Z,58.85
2023-02-12T04:22:44.710Z,55.03
2023-02-12T04:25:17.090Z,55.03
2023-02-12T04:27:43.832Z,57.00
2023-02-12T04:30:23.513Z,58.13
2023-02-12T04:32:48.310Z,56.15
2023-02-12T04:35:34.329Z,57.47
2023-02-12T04:38:14.565Z,58.22
2023-02-12T04:40:35.288Z,68.03
2023-02-12T04:42:55.162Z,69.25
2023-02-12T04:45:25.128Z,60.25
2023-02-12T04:47:45.611Z,57.78
2023-02-12T04:50:06.614Z,59.13
2023-02-12T04:52:26.447Z,56.55
2023-02-12T04:54:46.061Z,57.55
2023-02-12T04:57:05.761Z,55.40
2023-02-12T04:59:25.493Z,58.83
2023-02-12T05:01:45.963Z,55.72
2023-02-12T05:04:07.955Z,61.00
2023-02-12T05:06:29.627Z,61.13
2023-02-12T05:08:49.264Z,63.15
2023-02-12T05:11:09.809Z,61.78
2023-02-12T05:13:29.766Z,53.97
2023-02-12T05:15:49.582Z,56.88
2023-02-12T05:18:09.703Z,60.92
2023-02-12T05:20:29.870Z,63.10
2023-02-12T05:22:53.423Z,56.95
2023-02-12T05:25:13.426Z,58.90
2023-02-12T05:27:33.578Z,57.05
2023-02-12T05:29:53.620Z,60.00
2023-02-12T05:32:14.679Z,57.63
2023-02-12T05:34:35.183Z,56.58
2023-02-12T05:36:54.976Z,55.90
2023-02-12T05:39:14.595Z,59.42
2023-02-12T05:41:35.042Z,60.70
2023-02-12T05:43:55.121Z,59.97
2023-02-12T05:46:15.784Z,63.28
2023-02-12T05:48:35.701Z,58.50
2023-02-12T05:51:05.454Z,61.72
2023-02-12T05:53:25.567Z,58.47
2023-02-12T05:55:46.053Z,63.45
2023-02-12T05:58:05.988Z,64.57
2023-02-12T06:00:25.824Z,62.15
2023-02-12T06:02:45.975Z,62.53
2023-02-12T06:05:06.249Z,62.13
2023-02-12T06:07:26.331Z,63.50
2023-02-12T06:09:46.169Z,64.25
2023-02-12T06:12:06.339Z,55.78
2023-02-12T06:14:26.503Z,60.28
2023-02-12T06:16:48.654Z,58.85
2023-02-12T06:19:09.575Z,52.87
2023-02-12T06:21:30.123Z,60.30
2023-02-12T06:23:51.647Z,66.60
2023-02-12T06:26:12.202Z,63.28
2023-02-12T06:28:32.163Z,61.42
2023-02-12T06:30:52.405Z,59.63
2023-02-12T06:33:12.477Z,60.42
2023-02-12T06:35:34.987Z,55.72
2023-02-12T06:37:54.723Z,60.50
2023-02-12T06:40:14.472Z,58.13
2023-02-12T06:42:34.523Z,51.83
2023-02-12T06:44:54.659Z,48.40
2023-02-12T06:47:14.301Z,53.92
2023-02-12T06:49:34.669Z,53.13
2023-02-12T06:51:54.813Z,53.15
2023-02-12T06:54:16.639Z,54.97
2023-02-12T06:56:37.728Z,53.67
2023-02-12T06:59:00.391Z,54.30
2023-02-12T07:01:23.637Z,54.47
2023-02-12T07:03:55.938Z,49.78
2023-02-12T07:06:18.903Z,50.78
2023-02-12T07:08:38.984Z,49.95
2023-02-12T07:10:59.220Z,52.97
2023-02-12T07:13:18.748Z,49.65
2023-02-12T07:15:39.887Z,50.67
2023-02-12T07:17:59.816Z,54.63
2023-02-12T07:20:19.604Z,52.45
2023-02-12T07:22:39.740Z,54.08
2023-02-12T07:24:59.786Z,52.60
2023-02-12T07:27:19.605Z,60.95
2023-02-12T07:29:39.830Z,61.70
2023-02-12T07:32:00.299Z,58.30
2023-02-12T07:34:20.318Z,57.67
2023-02-12T07:36:40.206Z,55.10
2023-02-12T07:39:00.963Z,59.88
2023-02-12T07:41:26.762Z,58.97
2023-02-12T07:43:49.037Z,54.22
2023-02-12T07:46:16.139Z,50.22
2023-02-12T07:48:36.056Z,51.70
2023-02-12T07:50:55.696Z,53.33
2023-02-12T07:53:15.628Z,55.45
2023-02-12T07:55:35.432Z,72.00
2023-02-12T07:57:55.022Z,74.07
2023-02-12T08:00:15.622Z,77.03
2023-02-12T08:02:35.631Z,94.13
2023-02-12T08:04:57.093Z,97.40
2023-02-12T08:07:17.561Z,89.60
2023-02-12T08:09:37.307Z,87.47
2023-02-12T08:11:57.328Z,106.53
2023-02-12T08:14:19.440Z,101.05
2023-02-12T08:16:40.993Z,79.70
2023-02-12T08:19:15.869Z,72.15
2023-02-12T08:21:37.860Z,74.97
2023-02-12T08:23:59.082Z,74.20
2023-02-12T08:26:23.303Z,63.95
2023-02-12T08:28:49.198Z,60.30
2023-02-12T08:31:13.473Z,57.90
2023-02-12T08:33:33.588Z,72.32
2023-02-12T08:36:14.797Z,54.95
2023-02-12T08:38:35.346Z,51.42
2023-02-12T08:40:55.650Z,49.03
2023-02-12T08:43:15.472Z,50.05
2023-02-12T08:45:35.642Z,44.38
2023-02-12T08:47:55.711Z,38.05
2023-02-12T08:50:15.773Z,46.75
2023-02-12T08:52:35.910Z,45.17
2023-02-12T08:54:56.131Z,36.53
2023-02-12T08:57:16.190Z,34.95
2023-02-12T08:59:35.838Z,36.28
2023-02-12T09:01:55.576Z,35.20
2023-02-12T09:04:26.922Z,30.55
2023-02-12T09:06:47.897Z,20.67
2023-02-12T09:09:07.883Z,20.23
2023-02-12T09:11:31.380Z,17.60
2023-02-12T09:13:58.228Z,18.73
2023-02-12T09:16:18.358Z,16.17
2023-02-12T09:18:42.248Z,15.30
2023-02-12T09:21:07.851Z,25.35
2023-02-12T09:23:28.090Z,20.10
2023-02-12T09:25:48.285Z,17.88
2023-02-12T09:28:09.663Z,12.77
2023-02-12T09:30:29.491Z,16.58
2023-02-12T09:32:49.668Z,19.35
2023-02-12T09:35:11.993Z,12.57
2023-02-12T09:37:32.034Z,12.98
2023-02-12T09:39:52.410Z,17.35
2023-02-12T09:42:37.049Z,16.92
2023-02-12T09:45:17.456Z,26.08
2023-02-12T09:47:58.999Z,17.60
2023-02-12T09:50:35.670Z,25.08
2023-02-12T09:52:58.431Z,21.20
2023-02-12T09:55:19.602Z,40.28
2023-02-12T09:57:39.664Z,58.85
2023-02-12T10:00:14.211Z,48.63
2023-02-12T10:02:39.313Z,35.22
2023-02-12T10:05:01.880Z,38.15
2023-02-12T10:07:43.107Z,45.30
2023-02-12T10:10:39.428Z,44.72
2023-02-12T10:13:05.048Z,49.25
2023-02-12T10:15:39.453Z,35.55
2023-02-12T10:18:21.001Z,22.00
2023-02-12T10:20:49.747Z,26.83
2023-02-12T10:23:44.882Z,24.95
2023-02-12T10:26:28.881Z,19.52
2023-02-12T10:28:50.575Z,17.55
2023-02-12T10:31:22.879Z,16.35
2023-02-12T10:33:45.569Z,13.35
2023-02-12T10:36:17.417Z,15.50
2023-02-12T10:38:42.017Z,14.95
2023-02-12T10:41:02.200Z,19.15
2023-02-12T10:43:22.045Z,19.65
2023-02-12T10:45:43.304Z,16.42
2023-02-12T10:48:08.315Z,19.48
2023-02-12T10:50:50.629Z,24.02
2023-02-12T10:53:19.693Z,16.67
2023-02-12T10:55:39.608Z,16.17
2023-02-12T10:58:01.868Z,14.50
2023-02-12T11:00:38.078Z,16.55
2023-02-12T11:03:10.844Z,16.52
2023-02-12T11:05:34.885Z,9.45
2023-02-12T11:07:57.104Z,9.15
2023-02-12T11:10:27.931Z,14.15
2023-02-12T11:12:49.201Z,8.30
2023-02-12T11:15:27.528Z,8.98
2023-02-12T11:17:59.693Z,7.95
2023-02-12T11:20:30.847Z,5.22
2023-02-12T11:23:31.109Z,5.38
2023-02-12T11:26:18.069Z,4.90
2023-02-12T11:28:37.907Z,5.68
2023-02-12T11:31:00.575Z,4.35
2023-02-12T11:33:25.280Z,4.47
2023-02-12T11:35:58.166Z,3.22
2023-02-12T11:38:28.030Z,3.88
2023-02-12T11:40:47.902Z,3.13
2023-02-12T11:43:14.290Z,4.10
2023-02-12T11:45:55.707Z,3.63
2023-02-12T11:48:18.501Z,4.43
2023-02-12T11:50:39.003Z,5.53
2023-02-12T11:53:07.471Z,3.30
2023-02-12T11:55:33.156Z,4.50
2023-02-12T11:58:19.752Z,3.60
2023-02-12T12:00:53.184Z,4.15
2023-02-12T12:03:26.665Z,3.38
2023-02-12T12:05:53.871Z,4.32
2023-02-12T12:08:49.268Z,5.38
2023-02-12T12:11:15.609Z,5.65
2023-02-12T12:13:49.508Z,5.65
2023-02-12T12:16:34.647Z,8.02
2023-02-12T12:19:20.105Z,6.85
2023-02-12T12:22:05.272Z,6.00
2023-02-12T12:24:58.488Z,6.65
2023-02-12T12:27:51.130Z,6.00
2023-02-12T12:30:33.286Z,7.25
2023-02-12T12:32:58.833Z,6.80
2023-02-12T12:35:24.204Z,6.47
2023-02-12T12:38:05.412Z,8.02
2023-02-12T12:40:55.092Z,7.15
2023-02-12T12:44:07.088Z,6.70
2023-02-12T12:46:47.324Z,7.00
2023-02-12T12:49:22.069Z,7.40
2023-02-12T12:51:56.841Z,7.18
2023-02-12T12:54:19.542Z,8.05
2023-02-12T12:56:45.782Z,6.28
2023-02-12T12:59:49.768Z,6.47
2023-02-12T13:02:15.723Z,6.18
2023-02-12T13:04:58.952Z,5.40
2023-02-12T13:07:21.659Z,5.65
2023-02-12T13:09:52.965Z,6.15
2023-02-12T13:12:34.850Z,5.00
2023-02-12T13:15:09.025Z,4.57
2023-02-12T13:17:47.343Z,6.18
2023-02-12T13:20:29.976Z,4.22
2023-02-12T13:23:02.334Z,4.17
2023-02-12T13:25:31.761Z,4.77
2023-02-12T13:27:52.634Z,3.20
2023-02-12T13:30:21.141Z,5.30
2023-02-12T13:32:44.458Z,5.07
2023-02-12T13:35:06.759Z,3.40
2023-02-12T13:37:48.196Z,4.20
2023-02-12T13:40:18.687Z,4.50
2023-02-12T13:42:53.602Z,4.40
2023-02-12T13:45:31.975Z,5.80
2023-02-12T13:48:04.669Z,6.07
2023-02-12T13:50:46.322Z,7.63
2023-02-12T13:53:24.329Z,6.70
2023-02-12T13:56:18.450Z,3.53
2023-02-12T13:58:39.114Z,4.65
2023-02-12T14:01:01.686Z,5.15
2023-02-12T14:03:35.337Z,5.63
2023-02-12T14:06:18.666Z,5.10
2023-02-12T14:08:42.061Z,4.97
2023-02-12T14:11:12.980Z,3.80
2023-02-12T14:14:02.535Z,3.97
2023-02-12T14:16:28.552Z,2.20
2023-02-12T14:18:48.306Z,1.60
2023-02-12T14:21:12.181Z,2.08
2023-02-12T14:23:34.631Z,2.80
2023-02-12T14:26:02.429Z,1.88
2023-02-12T14:28:54.244Z,1.52
2023-02-12T14:31:20.672Z,1.48
2023-02-12T14:33:40.413Z,2.13
2023-02-12T14:36:17.916Z,1.98
2023-02-12T14:38:47.488Z,1.83
2023-02-12T14:41:38.208Z,1.67
2023-02-12T14:44:16.885Z,2.17
2023-02-12T14:46:36.620Z,2.88
2023-02-12T14:49:04.336Z,3.03
2023-02-12T14:51:51.686Z,2.92
2023-02-12T14:54:49.510Z,2.88
2023-02-12T14:57:37.161Z,2.97
2023-02-12T15:00:03.565Z,3.28
2023-02-12T15:02:29.338Z,3.33
2023-02-12T15:04:51.035Z,3.80
2023-02-12T15:07:16.980Z,3.40
2023-02-12T15:09:45.951Z,3.72
2023-02-12T15:12:13.314Z,2.78
2023-02-12T15:14:41.967Z,3.53
2023-02-12T15:17:17.332Z,3.50
2023-02-12T15:20:05.374Z,3.45
2023-02-12T15:22:38.701Z,3.65
2023-02-12T15:25:28.260Z,3.75
2023-02-12T15:27:49.776Z,3.72
2023-02-12T15:30:26.059Z,3.88
2023-02-12T15:32:46.700Z,3.47
2023-02-12T15:35:17.161Z,3.17
2023-02-12T15:37:39.865Z,3.60
2023-02-12T15:40:03.034Z,3.65
2023-02-12T15:42:29.731Z,3.63
2023-02-12T15:44:49.719Z,3.95
2023-02-12T15:47:15.651Z,3.78
2023-02-12T15:49:37.363Z,3.28
2023-02-12T15:51:59.660Z,4.22
2023-02-12T15:54:20.478Z,3.67
2023-02-12T15:56:41.351Z,3.03
2023-02-12T15:59:02.043Z,3.88
2023-02-12T16:01:27.825Z,3.58
2023-02-12T16:04:07.732Z,3.60
2023-02-12T16:06:33.485Z,3.60
2023-02-12T16:09:01.375Z,4.15
2023-02-12T16:11:22.513Z,3.72
2023-02-12T16:13:54.732Z,4.05
2023-02-12T16:16:14.687Z,3.47
2023-02-12T16:18:34.990Z,4.10
2023-02-12T16:21:09.576Z,4.22
2023-02-12T16:23:30.765Z,3.45
2023-02-12T16:25:54.764Z,3.90
2023-02-12T16:28:20.160Z,5.18
2023-02-12T16:30:42.352Z,5.53
2023-02-12T16:33:02.095Z,4.88
2023-02-12T16:35:28.753Z,5.10
2023-02-12T16:37:51.797Z,5.20
2023-02-12T16:40:12.040Z,4.75
2023-02-12T16:42:32.223Z,5.82
2023-02-12T16:44:52.359Z,5.05
2023-02-12T16:47:21.356Z,8.15
2023-02-12T16:49:53.665Z,5.85
2023-02-12T16:52:37.946Z,5.05
2023-02-12T16:54:58.329Z,5.45
2023-02-12T16:57:18.028Z,5.78
2023-02-12T16:59:42.491Z,5.53
2023-02-12T17:02:10.124Z,7.75
2023-02-12T17:04:30.445Z,7.50
2023-02-12T17:06:50.071Z,10.00
2023-02-12T17:09:10.572Z,9.70
2023-02-12T17:11:30.585Z,7.25
2023-02-12T17:13:52.623Z,7.43
2023-02-12T17:16:21.614Z,16.05
2023-02-12T17:18:48.697Z,18.30
2023-02-12T17:21:31.046Z,12.85
2023-02-12T17:23:53.533Z,6.95
2023-02-12T17:26:13.626Z,8.00
2023-02-12T17:28:33.895Z,8.57
2023-02-12T17:30:53.957Z,30.67
2023-02-12T17:33:15.230Z,7.60
2023-02-12T17:35:37.867Z,8.13
2023-02-12T17:37:57.833Z,11.00
2023-02-12T17:40:18.082Z,9.45
2023-02-12T17:42:37.761Z,8.05
2023-02-12T17:44:57.850Z,5.22
2023-02-12T17:47:18.155Z,30.08
2023-02-12T17:49:39.211Z,6.93
2023-02-12T17:51:58.940Z,17.35
2023-02-12T17:54:18.985Z,14.88
2023-02-12T17:56:39.125Z,17.25
2023-02-12T17:58:59.589Z,31.40
2023-02-12T18:01:21.816Z,13.05
2023-02-12T18:03:42.240Z,12.25
2023-02-12T18:06:02.959Z,10.88
2023-02-12T18:08:22.835Z,12.20
2023-02-12T18:10:44.206Z,13.38
2023-02-12T18:13:03.992Z,10.32
2023-02-12T18:15:24.566Z,13.85
2023-02-12T18:17:44.186Z,12.30
2023-02-12T18:20:04.908Z,7.78
2023-02-12T18:22:25.330Z,7.40
2023-02-12T18:24:45.500Z,8.65
2023-02-12T18:27:05.145Z,9.18
2023-02-12T18:29:24.786Z,9.75
2023-02-12T18:31:44.952Z,9.18
2023-02-12T18:34:05.950Z,11.15
2023-02-12T18:36:25.878Z,11.50
2023-02-12T18:38:47.599Z,13.35
2023-02-12T18:41:13.898Z,7.47
2023-02-12T18:43:35.452Z,8.80
2023-02-12T18:45:55.580Z,8.82
2023-02-12T18:48:15.655Z,17.88
2023-02-12T18:50:36.461Z,11.90
2023-02-12T18:52:56.473Z,13.63
2023-02-12T18:55:16.605Z,14.85
2023-02-12T18:57:36.646Z,11.15
2023-02-12T18:59:56.637Z,18.10
2023-02-12T19:02:16.356Z,9.07
2023-02-12T19:04:36.383Z,9.90
2023-02-12T19:06:57.041Z,37.80
2023-02-12T19:09:19.600Z,42.75
2023-02-12T19:11:39.424Z,45.95
2023-02-12T19:13:59.652Z,45.80
2023-02-12T19:16:20.824Z,30.38
2023-02-12T19:18:41.309Z,31.33
2023-02-12T19:21:08.108Z,48.60
2023-02-12T19:23:28.173Z,29.83
2023-02-12T19:25:47.732Z,29.65
2023-02-12T19:28:07.925Z,72.72
2023-02-12T19:30:28.051Z,54.55
2023-02-12T19:32:48.217Z,36.13
2023-02-12T19:35:08.721Z,31.17
2023-02-12T19:37:28.665Z,23.23
2023-02-12T19:39:48.758Z,21.90
2023-02-12T19:42:11.492Z,21.63
2023-02-12T19:44:31.900Z,28.83
2023-02-12T19:46:52.665Z,36.72
2023-02-12T19:49:22.460Z,41.45
2023-02-12T19:51:42.477Z,48.88
2023-02-12T19:54:04.028Z,24.88
2023-02-12T19:56:23.697Z,37.08
2023-02-12T19:58:44.259Z,22.15
2023-02-12T20:01:12.354Z,33.63
2023-02-12T20:03:32.574Z,21.77
2023-02-12T20:06:04.585Z,18.15
2023-02-12T20:08:24.596Z,20.20
2023-02-12T20:10:45.151Z,20.25
2023-02-12T20:13:05.640Z,21.20
2023-02-12T20:15:25.793Z,17.23
2023-02-12T20:17:45.786Z,41.50
2023-02-12T20:20:06.584Z,42.03
2023-02-12T20:22:26.517Z,52.63
2023-02-12T20:24:46.528Z,55.33
2023-02-12T20:27:06.662Z,38.55
2023-02-12T20:29:27.255Z,40.53
2023-02-12T20:31:47.236Z,36.22
2023-02-12T20:34:10.593Z,30.33
2023-02-12T20:38:55.301Z,72.78
2023-02-12T20:41:15.176Z,64.03
2023-02-12T20:43:35.930Z,51.58
2023-02-12T20:48:21.512Z,38.22
2023-02-12T20:50:41.130Z,17.85
2023-02-12T20:53:01.756Z,19.52
2023-02-12T20:55:21.838Z,17.75
2023-02-12T20:57:41.515Z,19.90
2023-02-12T21:00:02.265Z,17.88
2023-02-12T21:02:22.643Z,17.38
2023-02-12T21:04:42.831Z,16.23
2023-02-12T21:07:02.935Z,22.17
2023-02-12T21:09:23.204Z,20.83
2023-02-12T21:11:45.029Z,22.98
2023-02-12T21:14:21.318Z,30.63
2023-02-12T21:16:43.738Z,34.15
2023-02-12T21:19:04.011Z,31.58
2023-02-12T21:21:30.267Z,80.35
2023-02-12T21:23:56.676Z,52.35
2023-02-12T21:26:18.837Z,38.50
2023-02-12T21:28:39.477Z,43.10
2023-02-12T21:31:18.028Z,33.75
2023-02-12T21:33:39.248Z,26.45
2023-02-12T21:36:03.543Z,22.48
2023-02-12T21:38:23.510Z,20.67
2023-02-12T21:40:43.293Z,24.13
2023-02-12T21:43:03.474Z,22.27
2023-02-12T21:45:23.673Z,17.50
2023-02-12T21:47:44.075Z,17.88
2023-02-12T21:50:04.963Z,19.60
2023-02-12T21:52:25.072Z,22.25
2023-02-12T21:54:45.001Z,21.60
2023-02-12T21:57:05.303Z,20.15
2023-02-12T21:59:25.737Z,23.73
2023-02-12T22:01:50.820Z,22.52
2023-02-12T22:04:11.194Z,20.75
2023-02-12T22:06:31.513Z,18.50
2023-02-12T22:08:54.994Z,16.02
2023-02-12T22:11:15.338Z,19.05
2023-02-12T22:13:35.767Z,18.02
2023-02-12T22:15:55.685Z,19.35
2023-02-12T22:18:15.698Z,18.73
2023-02-12T22:20:36.486Z,24.88
2023-02-12T22:22:57.247Z,25.40
2023-02-12T22:25:17.077Z,34.20
2023-02-12T22:27:36.604Z,28.80
2023-02-12T22:29:56.784Z,30.77
2023-02-12T22:32:17.024Z,40.08
2023-02-12T22:34:37.039Z,35.22
2023-02-12T22:36:56.913Z,33.33
2023-02-12T22:39:17.440Z,28.10
2023-02-12T22:41:37.313Z,21.48
2023-02-12T22:44:04.462Z,15.00
2023-02-12T22:46:24.060Z,17.27
2023-02-12T22:48:43.949Z,14.25
2023-02-12T22:51:08.905Z,13.68
2023-02-12T22:53:28.907Z,11.23
2023-02-12T22:55:48.808Z,12.07
2023-02-12T22:58:09.026Z,20.83
2023-02-12T23:00:29.112Z,12.68
2023-02-12T23:02:48.745Z,17.88
2023-02-12T23:05:08.326Z,14.73
2023-02-12T23:07:27.991Z,21.10
2023-02-12T23:09:47.830Z,12.27
2023-02-12T23:12:10.295Z,11.48
2023-02-12T23:14:30.310Z,14.20
2023-02-12T23:16:50.101Z,13.15
2023-02-12T23:19:10.886Z,9.45
2023-02-12T23:21:31.757Z,11.70
2023-02-12T23:23:52.085Z,11.15
2023-02-12T23:26:12.118Z,9.88
2023-02-12T23:28:31.925Z,12.88
2023-02-12T23:30:52.906Z,14.32
2023-02-12T23:33:12.823Z,11.07
2023-02-12T23:35:32.820Z,13.88
2023-02-12T23:37:52.627Z,12.05
2023-02-12T23:40:13.013Z,10.75
2023-02-12T23:42:33.240Z,16.65
2023-02-12T23:44:54.593Z,10.65
2023-02-12T23:47:15.247Z,18.70
2023-02-12T23:49:36.406Z,11.07
2023-02-12T23:51:56.269Z,12.98
2023-02-12T23:54:16.142Z,11.13
2023-02-12T23:56:36.166Z,11.38
2023-02-12T23:58:56.835Z,9.15
